createdAt,value
2023-04-03T00:12:31.083Z,3.28
2023-04-03T00:32:31.000Z,3.19
2023-04-03T00:52:31.040Z,3.19
2023-04-03T01:12:30.972Z,3.22
2023-04-03T01:32:31.035Z,3.31
2023-04-03T01:52:31.098Z,3.48
2023-04-03T02:12:30.930Z,3.45
2023-04-03T02:32:30.939Z,3.41
2023-04-03T02:52:30.856Z,3.39
2023-04-03T03:12:31.020Z,3.37
2023-04-03T03:32:30.857Z,3.45
2023-04-03T03:52:31.052Z,3.53
2023-04-03T04:12:30.864Z,3.47
2023-04-03T04:32:30.924Z,3.53
2023-04-03T04:52:30.978Z,3.37
2023-04-03T05:12:30.875Z,3.38
2023-04-03T05:32:30.820Z,3.36
2023-04-03T05:52:30.803Z,3.39
2023-04-03T06:12:30.921Z,3.52
2023-04-03T06:32:30.888Z,3.66
2023-04-03T06:52:30.828Z,3.78
2023-04-03T07:12:30.962Z,3.91
2023-04-03T07:32:31.043Z,4.08
2023-04-03T07:52:31.039Z,4.30
2023-04-03T08:12:31.128Z,4.39
2023-04-03T08:32:30.968Z,4.66
2023-04-03T08:52:31.047Z,5.04
2023-04-03T09:12:30.938Z,5.15
2023-04-03T09:32:31.005Z,5.09
2023-04-03T09:52:31.032Z,4.65
2023-04-03T10:12:31.096Z,4.83
2023-04-03T10:32:30.931Z,5.27
2023-04-03T10:52:30.789Z,5.50
2023-04-03T11:12:30.975Z,5.19
2023-04-03T11:32:30.958Z,5.73
2023-04-03T11:52:30.999Z,5.96
2023-04-03T12:12:31.016Z,6.57
2023-04-03T12:32:30.969Z,6.38
2023-04-03T12:52:31.009Z,6.35
2023-04-03T13:12:31.009Z,5.94
2023-04-03T13:32:30.923Z,6.02
2023-04-03T13:52:30.915Z,6.35
2023-04-03T14:12:30.765Z,6.76
2023-04-03T14:32:30.960Z,6.28
2023-04-03T14:52:30.959Z,6.04
2023-04-03T15:12:31.015Z,5.97
2023-04-03T15:32:30.843Z,5.92
2023-04-03T15:52:30.721Z,6.07
2023-04-03T16:12:30.913Z,5.98
2023-04-03T16:32:30.750Z,5.92
2023-04-03T16:52:30.935Z,5.54
2023-04-03T17:12:30.851Z,5.19
2023-04-03T17:32:30.927Z,4.65
2023-04-03T17:52:30.721Z,4.15
2023-04-03T18:12:30.745Z,4.19
2023-04-03T18:32:30.979Z,4.05
2023-04-03T18:52:30.866Z,3.72
2023-04-03T19:12:30.961Z,3.32
2023-04-03T19:32:30.851Z,2.90
2023-04-03T19:52:30.957Z,2.69
2023-04-03T20:12:30.782Z,2.41
2023-04-03T20:32:30.683Z,2.33
2023-04-03T20:52:30.865Z,2.31
2023-04-03T21:12:30.777Z,2.08
2023-04-03T21:32:30.803Z,1.88
2023-04-03T21:52:30.937Z,1.68
2023-04-03T22:12:30.965Z,1.47
2023-04-03T22:32:30.957Z,1.43
2023-04-03T22:52:30.802Z,1.21
2023-04-03T23:12:30.961Z,1.13
2023-04-03T23:32:30.968Z,1.02
2023-04-03T23:52:30.804Z,1.16
